createdAt,value
2023-08-20T00:02:16.488Z,3.30
2023-08-20T00:04:46.679Z,2.95
2023-08-20T00:07:14.174Z,3.42
2023-08-20T00:09:42.319Z,3.20
2023-08-20T00:12:10.271Z,3.28
2023-08-20T00:15:06.016Z,3.42
2023-08-20T00:17:38.566Z,3.40
2023-08-20T00:20:14.342Z,3.03
2023-08-20T00:22:46.892Z,3.38
2023-08-20T00:25:16.151Z,3.65
2023-08-20T00:27:44.321Z,3.45
2023-08-20T00:30:14.426Z,3.28
2023-08-20T00:32:41.940Z,3.72
2023-08-20T00:35:10.392Z,3.63
2023-08-20T00:38:18.417Z,3.42
2023-08-20T00:41:01.214Z,3.47
2023-08-20T00:43:28.471Z,3.38
2023-08-20T00:45:55.781Z,3.78
2023-08-20T00:48:23.393Z,3.45
2023-08-20T00:50:50.822Z,3.65
2023-08-20T00:53:20.990Z,3.60
2023-08-20T00:55:49.703Z,3.70
2023-08-20T00:58:17.227Z,3.60
2023-08-20T01:00:44.420Z,3.80
2023-08-20T01:03:11.844Z,3.97
2023-08-20T01:05:45.463Z,3.92
2023-08-20T01:08:34.722Z,4.55
2023-08-20T01:11:26.275Z,4.80
2023-08-20T01:13:56.774Z,4.38
2023-08-20T01:16:24.660Z,4.43
2023-08-20T01:18:52.510Z,4.35
2023-08-20T01:21:40.734Z,4.18
2023-08-20T01:24:57.003Z,4.15
2023-08-20T01:27:27.069Z,4.22
2023-08-20T01:29:56.173Z,4.10
2023-08-20T01:32:25.268Z,3.90
2023-08-20T01:34:55.093Z,4.00
2023-08-20T01:37:23.362Z,3.72
2023-08-20T01:39:50.839Z,3.92
2023-08-20T01:42:18.113Z,3.78
2023-08-20T01:44:45.632Z,3.90
2023-08-20T01:47:12.925Z,3.60
2023-08-20T01:49:40.321Z,4.13
2023-08-20T01:52:07.826Z,3.95
2023-08-20T01:54:35.304Z,3.92
2023-08-20T01:57:02.684Z,3.60
2023-08-20T01:59:30.100Z,3.83
2023-08-20T02:01:57.521Z,3.67
2023-08-20T02:04:24.934Z,3.55
2023-08-20T02:06:52.146Z,3.38
2023-08-20T02:09:21.168Z,3.67
2023-08-20T02:11:48.631Z,3.42
2023-08-20T02:14:15.846Z,3.60
2023-08-20T02:16:43.121Z,3.40
2023-08-20T02:19:10.713Z,4.05
2023-08-20T02:21:38.325Z,4.00
2023-08-20T02:24:06.052Z,3.90
2023-08-20T02:26:36.215Z,3.85
2023-08-20T02:29:04.335Z,3.72
2023-08-20T02:31:31.762Z,4.10
2023-08-20T02:33:59.141Z,3.88
2023-08-20T02:36:26.714Z,3.78
2023-08-20T02:38:54.495Z,3.92
2023-08-20T02:41:22.182Z,4.20
2023-08-20T02:43:50.030Z,4.10
2023-08-20T02:46:17.529Z,4.03
2023-08-20T02:48:44.997Z,4.10
2023-08-20T02:51:12.355Z,3.70
2023-08-20T02:53:42.495Z,3.70
2023-08-20T02:56:10.073Z,4.20
2023-08-20T02:58:37.219Z,3.70
2023-08-20T03:01:04.523Z,4.13
2023-08-20T03:03:31.654Z,3.95
2023-08-20T03:05:59.142Z,3.80
2023-08-20T03:08:27.692Z,3.58
2023-08-20T03:10:54.894Z,3.92
2023-08-20T03:13:22.283Z,3.90
2023-08-20T03:15:49.702Z,3.40
2023-08-20T03:18:17.179Z,3.50
2023-08-20T03:20:44.414Z,3.67
2023-08-20T03:23:11.937Z,3.55
2023-08-20T03:25:40.004Z,3.70
2023-08-20T03:28:07.199Z,3.42
2023-08-20T03:30:35.336Z,3.28
2023-08-20T03:33:02.812Z,3.28
2023-08-20T03:35:30.371Z,3.33
2023-08-20T03:37:57.739Z,3.33
2023-08-20T03:40:25.372Z,3.50
2023-08-20T03:42:52.753Z,3.45
2023-08-20T03:45:19.943Z,3.83
2023-08-20T03:47:48.606Z,4.07
2023-08-20T03:50:16.040Z,4.57
2023-08-20T03:52:43.404Z,4.78
2023-08-20T03:55:10.777Z,5.40
2023-08-20T03:57:38.099Z,4.85
2023-08-20T04:00:09.621Z,4.63
2023-08-20T04:02:36.979Z,4.45
2023-08-20T04:05:05.495Z,5.05
2023-08-20T04:07:33.078Z,5.53
2023-08-20T04:10:00.778Z,5.22
2023-08-20T04:12:28.277Z,5.40
2023-08-20T04:14:55.789Z,5.47
2023-08-20T04:17:23.491Z,5.72
2023-08-20T04:19:51.432Z,5.18
2023-08-20T04:22:18.939Z,5.40
2023-08-20T04:24:46.542Z,5.70
2023-08-20T04:27:13.963Z,5.10
2023-08-20T04:29:41.466Z,5.72
2023-08-20T04:32:08.858Z,5.70
2023-08-20T04:34:36.098Z,5.70
2023-08-20T04:37:03.415Z,5.30
2023-08-20T04:39:30.903Z,4.80
2023-08-20T04:41:58.665Z,4.70
2023-08-20T04:44:26.062Z,4.50
2023-08-20T04:46:53.280Z,4.55
2023-08-20T04:49:20.714Z,4.13
2023-08-20T04:51:48.105Z,3.95
2023-08-20T04:54:15.652Z,4.05
2023-08-20T04:56:43.234Z,3.67
2023-08-20T04:59:10.673Z,3.33
2023-08-20T05:01:37.843Z,3.40
2023-08-20T05:04:05.446Z,2.75
2023-08-20T05:06:33.034Z,2.53
2023-08-20T05:09:00.557Z,2.78
2023-08-20T05:11:27.804Z,2.78
2023-08-20T05:13:56.811Z,2.42
2023-08-20T05:16:24.344Z,2.20
2023-08-20T05:18:51.848Z,1.95
2023-08-20T05:21:19.299Z,2.00
2023-08-20T05:23:47.031Z,2.10
2023-08-20T05:26:14.441Z,1.83
2023-08-20T05:28:41.642Z,1.70
2023-08-20T05:31:09.426Z,1.40
2023-08-20T05:33:36.610Z,1.30
2023-08-20T05:36:04.262Z,1.10
2023-08-20T05:38:31.614Z,1.30
2023-08-20T05:40:58.832Z,1.30
2023-08-20T05:43:26.298Z,1.38
2023-08-20T05:45:53.534Z,1.40
2023-08-20T05:48:21.153Z,1.35
2023-08-20T05:50:48.630Z,1.30
2023-08-20T05:53:16.212Z,1.40
2023-08-20T05:55:43.761Z,1.48
2023-08-20T05:58:11.595Z,1.50
2023-08-20T06:00:39.548Z,1.63
2023-08-20T06:03:08.774Z,1.55
2023-08-20T06:05:36.229Z,1.80
2023-08-20T06:08:03.866Z,1.50
2023-08-20T06:10:31.392Z,1.50
2023-08-20T06:12:58.961Z,1.50
2023-08-20T06:15:26.485Z,1.70
2023-08-20T06:17:53.874Z,1.45
2023-08-20T06:20:21.412Z,1.70
2023-08-20T06:22:48.614Z,1.40
2023-08-20T06:25:17.188Z,1.33
2023-08-20T06:27:44.901Z,1.40
2023-08-20T06:30:12.980Z,1.48
2023-08-20T06:32:40.290Z,1.80
2023-08-20T06:35:10.375Z,1.23
2023-08-20T06:37:39.864Z,1.40
2023-08-20T06:40:08.768Z,1.40
2023-08-20T06:42:38.775Z,1.48
2023-08-20T06:45:09.410Z,1.50
2023-08-20T06:47:37.452Z,1.50
2023-08-20T06:50:05.861Z,1.30
2023-08-20T06:52:33.547Z,1.30
2023-08-20T06:55:00.991Z,1.30
2023-08-20T06:57:28.405Z,1.30
2023-08-20T06:59:55.727Z,1.40
2023-08-20T07:02:23.014Z,1.58
2023-08-20T07:04:50.450Z,1.50
2023-08-20T07:07:18.022Z,1.30
2023-08-20T07:09:45.429Z,1.35
2023-08-20T07:12:12.646Z,1.33
2023-08-20T07:14:39.962Z,1.33
2023-08-20T07:17:07.234Z,1.38
2023-08-20T07:19:34.741Z,1.50
2023-08-20T07:22:02.242Z,1.17
2023-08-20T07:24:31.496Z,1.33
2023-08-20T07:27:02.689Z,1.30
2023-08-20T07:29:32.877Z,1.25
2023-08-20T07:32:04.630Z,1.20
2023-08-20T07:34:32.062Z,1.50
2023-08-20T07:37:00.097Z,1.30
2023-08-20T07:39:27.471Z,1.20
2023-08-20T07:41:54.880Z,1.40
2023-08-20T07:44:22.325Z,1.30
2023-08-20T07:46:49.736Z,0.98
2023-08-20T07:49:17.139Z,0.95
2023-08-20T07:51:44.361Z,0.90
2023-08-20T07:54:11.854Z,0.80
2023-08-20T07:56:39.101Z,0.82
2023-08-20T07:59:06.616Z,0.95
2023-08-20T08:01:34.286Z,0.80
2023-08-20T08:04:02.398Z,0.70
2023-08-20T08:06:29.880Z,0.80
2023-08-20T08:08:57.181Z,0.90
2023-08-20T08:11:25.545Z,0.90
2023-08-20T08:13:52.982Z,0.95
2023-08-20T08:16:20.466Z,0.90
2023-08-20T08:18:47.936Z,0.90
2023-08-20T08:21:15.474Z,1.10
2023-08-20T08:23:42.651Z,0.90
2023-08-20T08:26:10.073Z,0.90
2023-08-20T08:28:37.448Z,0.90
2023-08-20T08:31:07.904Z,1.00
2023-08-20T08:33:35.753Z,1.05
2023-08-20T08:36:02.992Z,1.25
2023-08-20T08:38:30.373Z,1.20
2023-08-20T08:41:07.345Z,1.02
2023-08-20T08:43:38.736Z,1.10
2023-08-20T08:46:09.236Z,1.40
2023-08-20T08:48:36.955Z,1.23
2023-08-20T08:51:04.562Z,1.90
2023-08-20T08:53:33.766Z,1.30
2023-08-20T08:56:01.941Z,1.20
2023-08-20T08:58:29.267Z,1.40
2023-08-20T09:00:56.644Z,1.20
2023-08-20T09:03:25.633Z,1.10
2023-08-20T09:06:04.803Z,1.00
2023-08-20T09:08:33.304Z,1.10
2023-08-20T09:11:02.255Z,1.40
2023-08-20T09:13:45.049Z,1.48
2023-08-20T09:16:13.499Z,1.33
2023-08-20T09:18:43.184Z,1.20
2023-08-20T09:21:16.435Z,1.23
2023-08-20T09:23:48.488Z,1.20
2023-08-20T09:26:16.643Z,1.20
2023-08-20T09:28:46.276Z,1.30
2023-08-20T09:31:18.177Z,1.20
2023-08-20T09:33:56.647Z,1.20
2023-08-20T09:36:35.677Z,1.27
2023-08-20T09:39:03.855Z,1.20
2023-08-20T09:41:35.681Z,1.20
2023-08-20T09:44:08.299Z,1.20
2023-08-20T09:46:37.073Z,1.40
2023-08-20T09:49:06.542Z,1.30
2023-08-20T09:51:37.472Z,1.20
2023-08-20T09:54:29.553Z,1.20
2023-08-20T09:57:02.137Z,1.60
2023-08-20T09:59:30.708Z,1.67
2023-08-20T10:01:59.274Z,1.60
2023-08-20T10:04:27.456Z,1.40
2023-08-20T10:06:56.442Z,1.38
2023-08-20T10:09:24.548Z,1.30
2023-08-20T10:11:51.793Z,1.30
2023-08-20T10:14:20.585Z,1.40
2023-08-20T10:16:48.138Z,1.83
2023-08-20T10:19:18.497Z,1.38
2023-08-20T10:21:50.894Z,1.45
2023-08-20T10:24:22.515Z,1.20
2023-08-20T10:27:08.028Z,1.25
2023-08-20T10:29:43.531Z,1.10
2023-08-20T10:32:13.477Z,1.25
2023-08-20T10:34:44.410Z,1.17
2023-08-20T10:37:15.266Z,1.25
2023-08-20T10:39:48.322Z,1.20
2023-08-20T10:42:21.460Z,1.08
2023-08-20T10:45:10.229Z,1.30
2023-08-20T10:47:48.922Z,1.00
2023-08-20T10:50:20.742Z,1.30
2023-08-20T10:52:56.528Z,1.23
2023-08-20T10:55:27.386Z,1.38
2023-08-20T10:58:00.980Z,1.30
2023-08-20T11:00:29.776Z,1.40
2023-08-20T11:02:58.232Z,1.48
2023-08-20T11:05:26.054Z,1.40
2023-08-20T11:07:53.785Z,1.55
2023-08-20T11:10:22.576Z,1.40
2023-08-20T11:12:50.225Z,1.30
2023-08-20T11:15:17.690Z,1.60
2023-08-20T11:17:51.392Z,1.40
2023-08-20T11:20:21.352Z,1.40
2023-08-20T11:22:48.620Z,1.20
2023-08-20T11:25:15.875Z,1.50
2023-08-20T11:27:44.378Z,1.48
2023-08-20T11:30:15.211Z,1.60
2023-08-20T11:32:44.441Z,1.38
2023-08-20T11:35:12.605Z,1.65
2023-08-20T11:37:41.329Z,1.63
2023-08-20T11:40:09.885Z,1.60
2023-08-20T11:42:37.391Z,1.58
2023-08-20T11:45:05.388Z,1.60
2023-08-20T11:47:43.241Z,1.80
2023-08-20T11:50:11.510Z,1.55
2023-08-20T11:52:40.960Z,1.55
2023-08-20T11:55:09.275Z,1.60
2023-08-20T11:57:37.147Z,1.50
2023-08-20T12:00:16.799Z,1.65
2023-08-20T12:02:44.904Z,1.73
2023-08-20T12:05:12.391Z,1.50
2023-08-20T12:07:39.577Z,1.77
2023-08-20T12:10:23.640Z,1.60
2023-08-20T12:12:51.975Z,1.48
2023-08-20T12:15:22.594Z,1.67
2023-08-20T12:18:03.103Z,1.70
2023-08-20T12:20:32.635Z,1.50
2023-08-20T12:23:02.493Z,1.50
2023-08-20T12:25:35.790Z,1.38
2023-08-20T12:28:07.382Z,1.40
2023-08-20T12:30:38.627Z,1.40
2023-08-20T12:33:07.561Z,1.30
2023-08-20T12:35:35.326Z,1.40
2023-08-20T12:38:02.962Z,1.38
2023-08-20T12:40:30.736Z,1.42
2023-08-20T12:42:58.263Z,1.17
2023-08-20T12:45:25.864Z,1.15
2023-08-20T12:47:53.141Z,1.30
2023-08-20T12:50:20.644Z,1.10
2023-08-20T12:52:50.484Z,1.40
2023-08-20T12:55:17.912Z,1.20
2023-08-20T12:57:59.212Z,1.23
2023-08-20T13:00:28.590Z,1.27
2023-08-20T13:02:56.943Z,1.50
2023-08-20T13:05:25.505Z,1.30
2023-08-20T13:07:53.810Z,1.50
2023-08-20T13:10:21.915Z,1.10
2023-08-20T13:12:55.413Z,1.30
2023-08-20T13:15:24.231Z,1.40
2023-08-20T13:17:52.051Z,1.35
2023-08-20T13:20:24.105Z,1.40
2023-08-20T13:22:52.471Z,1.60
2023-08-20T13:25:19.836Z,1.40
2023-08-20T13:27:47.189Z,1.63
2023-08-20T13:30:14.716Z,1.35
2023-08-20T13:32:42.220Z,1.40
2023-08-20T13:35:10.452Z,1.70
2023-08-20T13:37:38.086Z,1.52
2023-08-20T13:40:06.235Z,1.40
2023-08-20T13:42:34.039Z,1.35
2023-08-20T13:45:01.885Z,1.70
2023-08-20T13:47:29.385Z,1.40
2023-08-20T13:49:56.883Z,1.48
2023-08-20T13:52:24.134Z,1.30
2023-08-20T13:54:51.598Z,1.23
2023-08-20T13:57:19.028Z,1.40
2023-08-20T13:59:46.640Z,1.40
2023-08-20T14:02:13.888Z,1.50
2023-08-20T14:04:41.151Z,1.40
2023-08-20T14:07:09.148Z,1.55
2023-08-20T14:09:37.456Z,1.35
2023-08-20T14:12:04.910Z,1.42
2023-08-20T14:14:32.270Z,1.50
2023-08-20T14:16:59.484Z,1.35
2023-08-20T14:19:26.743Z,1.42
2023-08-20T14:21:54.254Z,1.38
2023-08-20T14:24:21.808Z,1.50
2023-08-20T14:26:49.662Z,1.40
2023-08-20T14:29:17.221Z,1.42
2023-08-20T14:31:44.568Z,1.50
2023-08-20T14:34:11.927Z,1.40
2023-08-20T14:36:39.676Z,1.40
2023-08-20T14:39:10.333Z,2.22
2023-08-20T14:41:38.041Z,1.38
2023-08-20T14:44:05.666Z,1.60
2023-08-20T14:46:33.361Z,1.52
2023-08-20T14:49:01.040Z,1.40
2023-08-20T14:51:28.462Z,1.35
2023-08-20T14:53:56.071Z,1.30
2023-08-20T14:56:23.495Z,1.58
2023-08-20T14:58:51.291Z,1.45
2023-08-20T15:01:19.180Z,1.63
2023-08-20T15:03:47.721Z,1.50
2023-08-20T15:06:18.072Z,1.45
2023-08-20T15:08:45.523Z,1.50
2023-08-20T15:11:12.729Z,1.63
2023-08-20T15:13:41.330Z,1.83
2023-08-20T15:16:08.634Z,1.83
2023-08-20T15:18:36.128Z,1.70
2023-08-20T15:21:04.221Z,1.65
2023-08-20T15:23:31.617Z,1.60
2023-08-20T15:25:59.017Z,1.85
2023-08-20T15:28:27.511Z,2.03
2023-08-20T15:30:55.575Z,2.10
2023-08-20T15:33:23.536Z,1.90
2023-08-20T15:35:51.233Z,2.00
2023-08-20T15:38:20.338Z,1.95
2023-08-20T15:40:47.742Z,1.77
2023-08-20T15:43:14.968Z,2.00
2023-08-20T15:45:42.668Z,1.98
2023-08-20T15:48:11.142Z,2.10
2023-08-20T15:50:40.358Z,2.13
2023-08-20T15:53:08.694Z,2.15
2023-08-20T15:55:35.923Z,2.10
2023-08-20T15:58:04.346Z,2.20
2023-08-20T16:00:32.992Z,2.13
2023-08-20T16:03:00.547Z,2.25
2023-08-20T16:05:28.045Z,2.20
2023-08-20T16:07:55.533Z,2.50
2023-08-20T16:10:22.980Z,2.45
2023-08-20T16:12:50.285Z,2.92
2023-08-20T16:15:17.991Z,3.20
2023-08-20T16:17:45.522Z,2.95
2023-08-20T16:20:13.080Z,3.30
2023-08-20T16:22:40.396Z,3.58
2023-08-20T16:25:08.313Z,3.50
2023-08-20T16:27:37.923Z,3.90
2023-08-20T16:30:08.122Z,3.70
2023-08-20T16:32:35.595Z,4.10
2023-08-20T16:35:03.239Z,3.92
2023-08-20T16:37:30.578Z,4.13
2023-08-20T16:39:59.161Z,4.30
2023-08-20T16:42:26.535Z,4.57
2023-08-20T16:44:53.828Z,4.45
2023-08-20T16:47:21.907Z,4.20
2023-08-20T16:49:49.320Z,4.22
2023-08-20T16:52:16.598Z,4.20
2023-08-20T16:54:48.313Z,4.00
2023-08-20T16:57:15.815Z,4.13
2023-08-20T16:59:43.142Z,4.43
2023-08-20T17:02:10.602Z,4.30
2023-08-20T17:04:37.769Z,4.15
2023-08-20T17:07:05.336Z,4.40
2023-08-20T17:09:32.768Z,4.15
2023-08-20T17:12:00.644Z,4.10
2023-08-20T17:14:28.377Z,4.07
2023-08-20T17:16:56.410Z,4.50
2023-08-20T17:19:24.482Z,4.85
2023-08-20T17:21:53.269Z,5.10
2023-08-20T17:24:20.780Z,4.63
2023-08-20T17:26:48.085Z,5.00
2023-08-20T17:29:15.317Z,5.10
2023-08-20T17:31:42.642Z,4.90
2023-08-20T17:34:11.845Z,5.03
2023-08-20T17:36:39.315Z,4.72
2023-08-20T17:39:08.349Z,5.07
2023-08-20T17:41:35.969Z,4.80
2023-08-20T17:44:03.217Z,4.30
2023-08-20T17:46:51.097Z,4.78
2023-08-20T17:49:18.375Z,4.45
2023-08-20T17:51:46.972Z,4.03
2023-08-20T17:54:14.754Z,4.15
2023-08-20T17:56:42.242Z,4.13
2023-08-20T17:59:10.053Z,4.20
2023-08-20T18:01:38.328Z,4.30
2023-08-20T18:04:05.836Z,4.53
2023-08-20T18:06:33.586Z,4.05
2023-08-20T18:09:01.409Z,4.03
2023-08-20T18:11:29.493Z,4.43
2023-08-20T18:13:57.001Z,4.07
2023-08-20T18:16:24.625Z,4.40
2023-08-20T18:18:52.088Z,4.20
2023-08-20T18:21:19.337Z,5.05
2023-08-20T18:23:46.795Z,4.32
2023-08-20T18:26:14.331Z,4.15
2023-08-20T18:28:42.523Z,4.38
2023-08-20T18:31:10.031Z,4.45
2023-08-20T18:33:37.484Z,4.45
2023-08-20T18:36:05.605Z,3.97
2023-08-20T18:38:33.034Z,4.20
2023-08-20T18:41:02.162Z,4.70
2023-08-20T18:43:30.705Z,4.55
2023-08-20T18:45:58.162Z,4.80
2023-08-20T18:48:25.642Z,4.45
2023-08-20T18:50:53.497Z,4.90
2023-08-20T18:53:20.904Z,4.53
2023-08-20T18:55:48.116Z,4.35
2023-08-20T18:58:15.492Z,4.28
2023-08-20T19:00:43.423Z,4.40
2023-08-20T19:03:13.863Z,4.40
2023-08-20T19:05:44.083Z,4.63
2023-08-20T19:08:11.418Z,4.18
2023-08-20T19:10:39.489Z,4.60
2023-08-20T19:13:06.864Z,4.72
2023-08-20T19:15:57.542Z,4.43
2023-08-20T19:18:25.393Z,4.63
2023-08-20T19:20:57.952Z,4.80
2023-08-20T19:23:25.399Z,4.32
2023-08-20T19:25:52.843Z,4.82
2023-08-20T19:28:20.277Z,4.55
2023-08-20T19:30:51.318Z,4.57
2023-08-20T19:33:19.413Z,3.80
2023-08-20T19:35:47.507Z,3.70
2023-08-20T19:38:18.315Z,4.07
2023-08-20T19:40:49.091Z,4.15
2023-08-20T19:43:17.610Z,4.53
2023-08-20T19:45:45.474Z,4.00
2023-08-20T19:48:17.328Z,4.13
2023-08-20T19:50:44.960Z,3.67
2023-08-20T19:53:12.160Z,3.83
2023-08-20T19:55:39.666Z,3.50
2023-08-20T19:58:07.169Z,3.60
2023-08-20T20:00:34.590Z,3.58
2023-08-20T20:03:02.068Z,3.28
2023-08-20T20:05:30.991Z,3.38
2023-08-20T20:08:00.333Z,3.00
2023-08-20T20:10:27.845Z,3.53
2023-08-20T20:12:55.613Z,3.50
2023-08-20T20:15:23.271Z,3.75
2023-08-20T20:17:50.617Z,3.63
2023-08-20T20:20:17.996Z,3.40
2023-08-20T20:22:46.068Z,3.92
2023-08-20T20:25:14.413Z,3.30
2023-08-20T20:27:42.765Z,3.40
2023-08-20T20:30:10.703Z,3.40
2023-08-20T20:32:38.265Z,3.17
2023-08-20T20:35:06.778Z,3.20
2023-08-20T20:37:34.909Z,3.13
2023-08-20T20:40:10.437Z,3.50
2023-08-20T20:42:38.594Z,3.22
2023-08-20T20:45:07.409Z,3.15
2023-08-20T20:47:35.432Z,2.88
2023-08-20T20:50:02.882Z,3.35
2023-08-20T20:52:30.472Z,3.08
2023-08-20T20:54:57.974Z,2.88
2023-08-20T20:57:25.534Z,3.05
2023-08-20T20:59:52.984Z,2.97
2023-08-20T21:02:20.521Z,2.90
2023-08-20T21:04:47.874Z,3.10
2023-08-20T21:07:15.146Z,2.83
2023-08-20T21:09:42.586Z,2.75
2023-08-20T21:12:10.397Z,2.78
2023-08-20T21:14:37.707Z,2.80
2023-08-20T21:17:05.030Z,2.95
2023-08-20T21:19:32.433Z,3.33
2023-08-20T21:22:02.643Z,2.97
2023-08-20T21:24:30.775Z,2.90
2023-08-20T21:26:58.237Z,3.00
2023-08-20T21:29:25.661Z,2.47
2023-08-20T21:31:53.020Z,2.83
2023-08-20T21:34:20.476Z,2.92
2023-08-20T21:36:47.772Z,2.80
2023-08-20T21:39:15.046Z,2.90
2023-08-20T21:41:42.499Z,2.60
2023-08-20T21:44:10.162Z,2.67
2023-08-20T21:46:37.743Z,3.10
2023-08-20T21:49:05.164Z,2.63
2023-08-20T21:51:32.691Z,3.00
2023-08-20T21:53:59.942Z,2.90
2023-08-20T21:56:27.467Z,2.53
2023-08-20T21:58:54.932Z,2.83
2023-08-20T22:01:22.923Z,2.80
2023-08-20T22:03:50.508Z,2.53
2023-08-20T22:06:18.612Z,2.60
2023-08-20T22:08:45.994Z,2.42
2023-08-20T22:11:13.729Z,2.55
2023-08-20T22:13:41.075Z,2.50
2023-08-20T22:16:08.401Z,2.85
2023-08-20T22:18:35.638Z,2.50
2023-08-20T22:21:03.636Z,2.35
2023-08-20T22:23:31.834Z,2.58
2023-08-20T22:25:59.313Z,2.10
2023-08-20T22:28:26.631Z,2.72
2023-08-20T22:30:54.006Z,2.53
2023-08-20T22:33:21.438Z,2.65
2023-08-20T22:35:52.738Z,2.60
2023-08-20T22:38:20.217Z,2.40
2023-08-20T22:40:47.442Z,2.38
2023-08-20T22:43:14.784Z,2.72
2023-08-20T22:45:42.087Z,2.75
2023-08-20T22:48:09.550Z,2.70
2023-08-20T22:50:37.009Z,2.88
2023-08-20T22:53:04.612Z,2.60
2023-08-20T22:55:32.802Z,3.25
2023-08-20T22:58:00.478Z,3.40
2023-08-20T23:00:28.370Z,2.92
2023-08-20T23:02:56.447Z,2.97
2023-08-20T23:05:24.518Z,3.60
2023-08-20T23:07:51.902Z,3.90
2023-08-20T23:10:19.450Z,3.95
2023-08-20T23:12:46.734Z,4.63
2023-08-20T23:15:14.504Z,5.25
2023-08-20T23:17:42.121Z,4.90
2023-08-20T23:20:10.405Z,4.30
2023-08-20T23:22:37.840Z,4.00
2023-08-20T23:25:05.957Z,4.50
2023-08-20T23:27:33.423Z,4.85
2023-08-20T23:30:01.939Z,5.00
2023-08-20T23:32:32.593Z,4.07
2023-08-20T23:34:59.994Z,4.28
2023-08-20T23:37:27.473Z,3.88
2023-08-20T23:39:55.361Z,3.75
2023-08-20T23:42:22.676Z,3.67
2023-08-20T23:44:50.292Z,4.10
2023-08-20T23:47:17.819Z,3.33
2023-08-20T23:49:45.382Z,3.83
2023-08-20T23:52:12.895Z,4.05
2023-08-20T23:54:40.423Z,4.20
2023-08-20T23:57:07.779Z,4.00
2023-08-20T23:59:35.402Z,3.70
